Time;durP1;ratioP1;P1;durP2;ratioP2;P2;SDS_P1;SDS_P2;PMS_P1;PMS_P2;Temp;Humidity;BMP_temperature;BMP_pressure;BME280_temperature;BME280_humidity;BME280_pressure;Samples;Min_cycle;Max_cycle;Signal;HPM_P1;HPM_P2
2023/01/11 00:00:30;;;;;;;4.53;2.33;;;;;;;;;;4926383;29;20228;-87
2023/01/11 00:02:59;;;;;;;5.73;2.57;;;;;;;;;;4928191;29;20215;-89
2023/01/11 00:05:29;;;;;;;4.63;2.50;;;;;;;;;;4950027;28;20243;-87
2023/01/11 00:07:54;;;;;;;5.47;2.20;;;;;;;;;;4932343;29;20224;-89
2023/01/11 00:10:20;;;;;;;7.17;2.07;;;;;;;;;;4918979;29;20567;-86
2023/01/11 00:12:48;;;;;;;6.07;2.17;;;;;;;;;;4913528;29;20287;-87
2023/01/11 00:15:16;;;;;;;3.43;1.87;;;;;;;;;;4935108;29;20263;-87
2023/01/11 00:17:42;;;;;;;5.70;2.07;;;;;;;;;;4921281;29;20250;-88
2023/01/11 00:20:09;;;;;;;3.97;2.10;;;;;;;;;;4931516;29;20738;-86
2023/01/11 00:22:34;;;;;;;5.40;2.23;;;;;;;;;;4935042;29;20586;-88
2023/01/11 00:25:00;;;;;;;5.57;2.00;;;;;;;;;;4924337;29;20248;-86
2023/01/11 00:27:27;;;;;;;3.87;1.83;;;;;;;;;;4932528;29;20228;-86
2023/01/11 00:29:57;;;;;;;4.50;2.03;;;;;;;;;;4921565;29;20233;-86
2023/01/11 00:32:28;;;;;;;3.43;1.83;;;;;;;;;;4919851;29;20286;-87
2023/01/11 00:34:56;;;;;;;3.43;1.60;;;;;;;;;;4948812;29;20256;-88
2023/01/11 00:37:21;;;;;;;4.67;2.00;;;;;;;;;;4927207;29;20590;-88
2023/01/11 00:39:51;;;;;;;5.20;2.13;;;;;;;;;;4929311;29;20286;-87
2023/01/11 00:48:00;;;;;;;7.23;1.93;;;;;;;;;;4935666;29;20820;-87
2023/01/11 00:50:36;;;;;;;7.27;2.90;;;;;;;;;;4921264;29;20285;-89
2023/01/11 00:53:01;;;;;;;5.17;2.27;;;;;;;;;;4937379;29;20232;-87
2023/01/11 00:55:30;;;;;;;7.20;4.27;;;;;;;;;;4937575;29;20231;-88
2023/01/11 00:58:00;;;;;;;5.87;3.10;;;;;;;;;;4919920;29;20228;-87
2023/01/11 01:00:26;;;;;;;20.43;11.80;;;;;;;;;;4928348;29;20227;-87
2023/01/11 01:02:52;;;;;;;3.97;2.10;;;;;;;;;;4937806;29;20228;-86
2023/01/11 01:05:22;;;;;;;20.03;11.80;;;;;;;;;;4935609;29;20734;-87
2023/01/11 01:07:52;;;;;;;3.80;2.17;;;;;;;;;;4942580;29;20307;-86
2023/01/11 01:10:22;;;;;;;3.00;1.17;;;;;;;;;;4928089;29;20223;-86
2023/01/11 01:15:32;;;;;;;2.63;1.50;;;;;;;;;;4918134;29;20228;-85
2023/01/11 01:18:00;;;;;;;2.63;1.23;;;;;;;;;;4933456;29;20228;-88
2023/01/11 01:20:35;;;;;;;2.83;1.30;;;;;;;;;;4913143;28;20227;-89
2023/01/11 01:23:06;;;;;;;1.97;1.20;;;;;;;;;;4933539;29;20220;-88
2023/01/11 01:25:31;;;;;;;1.20;1.10;;;;;;;;;;4929993;29;20248;-87
2023/01/11 01:27:59;;;;;;;2.23;1.00;;;;;;;;;;4929908;29;20228;-85
2023/01/11 01:30:28;;;;;;;4.27;1.10;;;;;;;;;;4902690;29;20745;-87
2023/01/11 01:32:53;;;;;;;4.07;1.47;;;;;;;;;;4928802;29;20224;-86
2023/01/11 01:35:19;;;;;;;2.70;1.33;;;;;;;;;;4931012;29;20230;-85
2023/01/11 01:37:49;;;;;;;2.47;1.20;;;;;;;;;;4917854;29;20223;-87
2023/01/11 01:40:15;;;;;;;2.63;1.13;;;;;;;;;;4915943;29;20247;-85
2023/01/11 01:42:40;;;;;;;1.67;1.00;;;;;;;;;;4908813;29;20235;-86
2023/01/11 01:45:40;;;;;;;2.67;1.37;;;;;;;;;;4907361;29;20228;-86
2023/01/11 01:48:06;;;;;;;3.17;1.40;;;;;;;;;;4904189;29;20239;-86
2023/01/11 01:50:48;;;;;;;2.73;1.10;;;;;;;;;;4921343;29;20310;-87
2023/01/11 01:53:16;;;;;;;3.57;1.67;;;;;;;;;;4932467;29;20326;-87
2023/01/11 01:55:44;;;;;;;1.43;0.93;;;;;;;;;;4920977;29;20235;-88
2023/01/11 01:58:14;;;;;;;1.93;1.10;;;;;;;;;;4929175;29;20224;-86
2023/01/11 02:00:43;;;;;;;1.07;0.90;;;;;;;;;;4943039;29;20208;-84
2023/01/11 02:03:11;;;;;;;1.23;0.90;;;;;;;;;;4943603;28;20259;-88
2023/01/11 02:05:37;;;;;;;1.20;0.80;;;;;;;;;;4915374;29;20639;-87
2023/01/11 02:08:11;;;;;;;1.10;0.80;;;;;;;;;;4932268;29;20228;-88
2023/01/11 02:10:37;;;;;;;1.90;1.10;;;;;;;;;;4926305;29;20251;-87
2023/01/11 02:13:05;;;;;;;1.90;1.10;;;;;;;;;;4934689;29;20220;-88
2023/01/11 02:15:33;;;;;;;2.13;0.90;;;;;;;;;;4928062;29;20231;-86
2023/01/11 02:17:58;;;;;;;1.40;1.00;;;;;;;;;;4944830;29;20251;-87
2023/01/11 02:20:48;;;;;;;2.73;1.17;;;;;;;;;;4938167;29;20790;-87
2023/01/11 02:23:25;;;;;;;2.00;1.10;;;;;;;;;;4947347;28;20232;-88
2023/01/11 02:26:20;;;;;;;0.70;0.70;;;;;;;;;;4943145;28;20310;-87
2023/01/11 02:28:46;;;;;;;1.47;1.00;;;;;;;;;;4932808;29;20227;-88
2023/01/11 02:31:23;;;;;;;1.50;0.80;;;;;;;;;;4956504;28;20255;-86
2023/01/11 02:34:08;;;;;;;3.17;0.70;;;;;;;;;;4947691;29;20258;-86
2023/01/11 02:36:43;;;;;;;1.63;0.90;;;;;;;;;;4949839;28;20307;-86
2023/01/11 02:39:23;;;;;;;1.50;0.87;;;;;;;;;;4945826;29;20363;-87
2023/01/11 02:45:01;;;;;;;2.03;0.70;;;;;;;;;;4947994;29;20243;-88
2023/01/11 02:47:48;;;;;;;1.17;0.60;;;;;;;;;;4941636;29;20693;-88
2023/01/11 02:50:25;;;;;;;1.17;0.80;;;;;;;;;;4947700;28;20251;-89
2023/01/11 02:52:57;;;;;;;1.00;0.80;;;;;;;;;;4946603;29;20235;-88
2023/01/11 02:55:31;;;;;;;2.20;0.80;;;;;;;;;;4925986;29;20241;-88
2023/01/11 02:57:59;;;;;;;3.07;1.00;;;;;;;;;;4924549;29;20228;-87
2023/01/11 03:00:24;;;;;;;1.10;0.80;;;;;;;;;;4926603;29;20244;-87
2023/01/11 03:03:08;;;;;;;0.90;0.73;;;;;;;;;;4924308;29;20247;-89
2023/01/11 03:05:38;;;;;;;1.03;0.77;;;;;;;;;;4931241;29;20224;-87
2023/01/11 03:08:39;;;;;;;2.30;0.90;;;;;;;;;;4922823;29;20266;-88
2023/01/11 03:14:28;;;;;;;0.70;0.70;;;;;;;;;;4918076;29;20218;-88
2023/01/11 03:17:03;;;;;;;1.00;0.77;;;;;;;;;;4948061;28;20235;-88
2023/01/11 03:19:41;;;;;;;1.23;0.70;;;;;;;;;;4941689;29;20219;-88
2023/01/11 03:22:07;;;;;;;1.40;0.90;;;;;;;;;;4941373;29;20231;-87
2023/01/11 03:24:42;;;;;;;2.27;1.13;;;;;;;;;;4940684;29;20224;-87
2023/01/11 03:27:28;;;;;;;0.97;0.87;;;;;;;;;;4929948;29;20250;-87
2023/01/11 03:30:27;;;;;;;0.83;0.83;;;;;;;;;;4946771;29;20226;-88
2023/01/11 03:32:59;;;;;;;0.80;0.80;;;;;;;;;;4945361;29;20272;-85
2023/01/11 03:35:41;;;;;;;1.63;0.90;;;;;;;;;;4933262;29;20603;-87
2023/01/11 03:38:15;;;;;;;1.17;0.90;;;;;;;;;;4924060;29;20228;-88
2023/01/11 03:40:50;;;;;;;1.13;0.70;;;;;;;;;;4925113;29;20250;-86
2023/01/11 03:43:16;;;;;;;1.10;0.90;;;;;;;;;;4935132;29;20610;-88
2023/01/11 03:46:00;;;;;;;1.20;1.00;;;;;;;;;;4928608;29;20737;-87
2023/01/11 03:48:36;;;;;;;1.67;1.00;;;;;;;;;;4923792;29;20690;-87
2023/01/11 03:51:02;;;;;;;0.97;0.73;;;;;;;;;;4943652;29;20231;-87
2023/01/11 03:53:29;;;;;;;2.37;0.97;;;;;;;;;;4939924;29;20223;-88
2023/01/11 03:55:56;;;;;;;1.23;1.17;;;;;;;;;;4938856;29;20231;-86
2023/01/11 03:58:22;;;;;;;1.20;1.10;;;;;;;;;;4923627;29;20232;-86
2023/01/11 04:00:50;;;;;;;1.10;1.00;;;;;;;;;;4932230;29;20588;-88
2023/01/11 04:03:15;;;;;;;1.23;1.03;;;;;;;;;;4927936;29;20234;-88
2023/01/11 04:05:42;;;;;;;1.17;1.07;;;;;;;;;;4921855;29;20231;-86
2023/01/11 04:08:11;;;;;;;1.50;1.00;;;;;;;;;;4919590;29;20282;-87
2023/01/11 04:10:39;;;;;;;1.23;0.90;;;;;;;;;;4924207;29;20219;-87
2023/01/11 04:13:04;;;;;;;1.77;1.13;;;;;;;;;;4915786;29;20334;-88
2023/01/11 04:15:31;;;;;;;1.00;1.00;;;;;;;;;;4916688;29;20224;-88
2023/01/11 04:18:03;;;;;;;1.60;1.13;;;;;;;;;;4942863;28;20303;-87
2023/01/11 04:20:39;;;;;;;2.50;1.57;;;;;;;;;;4933388;29;20315;-88
2023/01/11 04:23:08;;;;;;;1.63;1.20;;;;;;;;;;4897897;29;20294;-89
2023/01/11 04:25:36;;;;;;;2.37;1.30;;;;;;;;;;4943316;29;20246;-88
2023/01/11 04:28:03;;;;;;;1.30;1.20;;;;;;;;;;4935852;29;20220;-87
2023/01/11 04:30:29;;;;;;;0.83;0.83;;;;;;;;;;4929971;29;20310;-86
2023/01/11 04:32:59;;;;;;;3.33;1.70;;;;;;;;;;4911424;29;20801;-87
2023/01/11 04:35:27;;;;;;;1.37;1.27;;;;;;;;;;4939525;29;20227;-89
2023/01/11 04:37:54;;;;;;;1.50;1.40;;;;;;;;;;4931857;29;20802;-87
2023/01/11 04:40:23;;;;;;;1.50;1.40;;;;;;;;;;4928746;29;22461;-86
2023/01/11 04:42:49;;;;;;;4.10;2.93;;;;;;;;;;4946631;28;20224;-86
2023/01/11 04:45:14;;;;;;;3.37;1.50;;;;;;;;;;4916290;29;20220;-87
2023/01/11 04:47:42;;;;;;;1.73;1.20;;;;;;;;;;4937774;29;20232;-85
2023/01/11 04:50:10;;;;;;;1.80;1.70;;;;;;;;;;4937539;29;20220;-86
2023/01/11 04:52:40;;;;;;;1.30;1.20;;;;;;;;;;4932825;29;20300;-87
2023/01/11 04:55:06;;;;;;;1.47;1.37;;;;;;;;;;4941833;29;20699;-83
2023/01/11 04:57:32;;;;;;;2.67;2.20;;;;;;;;;;4946551;29;20228;-85
2023/01/11 05:00:00;;;;;;;2.00;1.50;;;;;;;;;;4952491;29;20239;-85
2023/01/11 05:02:25;;;;;;;1.73;1.20;;;;;;;;;;4933840;29;20796;-86
2023/01/11 05:04:53;;;;;;;2.30;1.43;;;;;;;;;;4929643;29;20220;-85
2023/01/11 05:07:19;;;;;;;2.10;1.10;;;;;;;;;;4936640;29;20282;-84
2023/01/11 05:09:45;;;;;;;1.77;1.43;;;;;;;;;;4923173;29;20743;-85
2023/01/11 05:12:10;;;;;;;1.83;1.30;;;;;;;;;;4957132;29;20274;-85
2023/01/11 05:14:38;;;;;;;1.40;1.30;;;;;;;;;;4947918;28;20241;-83
2023/01/11 05:17:06;;;;;;;20.90;12.27;;;;;;;;;;4928194;29;20232;-87
2023/01/11 05:19:34;;;;;;;1.40;1.30;;;;;;;;;;4924140;29;20220;-85
2023/01/11 05:22:01;;;;;;;1.47;1.37;;;;;;;;;;4940891;29;20283;-82
2023/01/11 05:24:30;;;;;;;1.20;1.10;;;;;;;;;;4940488;29;20224;-84
2023/01/11 05:26:57;;;;;;;2.13;1.50;;;;;;;;;;4926176;29;20258;-86
2023/01/11 05:29:23;;;;;;;1.87;1.10;;;;;;;;;;4938852;29;20232;-85
2023/01/11 05:31:51;;;;;;;1.03;0.93;;;;;;;;;;4944845;29;20221;-85
2023/01/11 05:34:17;;;;;;;2.37;1.23;;;;;;;;;;4949700;29;21039;-83
2023/01/11 05:36:47;;;;;;;2.27;1.30;;;;;;;;;;4931267;29;20227;-85
2023/01/11 05:39:14;;;;;;;1.53;1.30;;;;;;;;;;4945571;29;20212;-86
2023/01/11 05:41:40;;;;;;;1.40;1.30;;;;;;;;;;4915951;29;20705;-85
2023/01/11 05:46:56;;;;;;;2.00;1.20;;;;;;;;;;4933648;29;20267;-84
2023/01/11 05:49:25;;;;;;;1.63;1.53;;;;;;;;;;4935379;29;20287;-86
2023/01/11 05:51:51;;;;;;;3.80;3.50;;;;;;;;;;4952171;29;20699;-85
2023/01/11 05:54:18;;;;;;;2.27;2.10;;;;;;;;;;4919657;29;20237;-86
2023/01/11 05:56:48;;;;;;;2.43;1.80;;;;;;;;;;4932739;29;20224;-86
2023/01/11 05:59:14;;;;;;;3.27;1.60;;;;;;;;;;4931071;29;20238;-85
2023/01/11 06:01:42;;;;;;;2.30;1.80;;;;;;;;;;4907573;29;20220;-86
2023/01/11 06:04:08;;;;;;;4.30;4.00;;;;;;;;;;4934787;29;20208;-87
2023/01/11 06:06:34;;;;;;;4.67;4.20;;;;;;;;;;4917707;29;20254;-86
2023/01/11 06:09:01;;;;;;;1.50;1.40;;;;;;;;;;4930005;29;20219;-86
2023/01/11 06:11:27;;;;;;;2.40;2.20;;;;;;;;;;4936546;29;20631;-86
2023/01/11 06:13:53;;;;;;;1.13;1.13;;;;;;;;;;4934668;29;20228;-82
2023/01/11 06:16:23;;;;;;;1.90;1.50;;;;;;;;;;4906186;29;20769;-85
2023/01/11 06:18:54;;;;;;;1.70;1.60;;;;;;;;;;4922607;29;20220;-84
2023/01/11 06:21:20;;;;;;;1.20;1.10;;;;;;;;;;4932557;29;20239;-88
2023/01/11 06:23:50;;;;;;;1.10;1.10;;;;;;;;;;4932863;29;20226;-87
2023/01/11 06:26:39;;;;;;;1.23;1.20;;;;;;;;;;4933344;29;20231;-86
2023/01/11 06:29:06;;;;;;;4.13;1.30;;;;;;;;;;4922843;29;20231;-84
2023/01/11 06:31:37;;;;;;;1.27;1.10;;;;;;;;;;4943116;29;20242;-85
2023/01/11 06:34:07;;;;;;;1.43;1.03;;;;;;;;;;4911816;29;20227;-82
2023/01/11 06:36:33;;;;;;;2.07;1.27;;;;;;;;;;4943806;29;20248;-84
2023/01/11 06:39:04;;;;;;;1.67;1.47;;;;;;;;;;4937185;29;20303;-81
2023/01/11 06:41:32;;;;;;;1.53;1.27;;;;;;;;;;4923109;29;20224;-85
2023/01/11 06:43:58;;;;;;;1.10;1.10;;;;;;;;;;4958027;28;20274;-86
2023/01/11 06:46:23;;;;;;;6.37;5.70;;;;;;;;;;4930500;29;20227;-84
2023/01/11 06:48:49;;;;;;;1.27;1.20;;;;;;;;;;4924241;29;20960;-86
2023/01/11 06:51:15;;;;;;;2.53;1.63;;;;;;;;;;4939060;29;20223;-81
2023/01/11 06:53:41;;;;;;;1.20;1.20;;;;;;;;;;4912340;29;20227;-84
2023/01/11 06:56:06;;;;;;;1.20;1.20;;;;;;;;;;4921438;29;20216;-84
2023/01/11 06:58:34;;;;;;;1.93;1.70;;;;;;;;;;4941560;29;20223;-86
2023/01/11 07:01:00;;;;;;;1.80;1.40;;;;;;;;;;4928353;29;20228;-84
2023/01/11 07:03:28;;;;;;;2.13;1.90;;;;;;;;;;4918781;29;20223;-85
2023/01/11 07:05:55;;;;;;;1.77;1.67;;;;;;;;;;4925929;29;20287;-86
2023/01/11 07:08:24;;;;;;;1.90;1.53;;;;;;;;;;4929031;29;20223;-86
2023/01/11 07:10:50;;;;;;;2.00;1.43;;;;;;;;;;4923147;29;20694;-85
2023/01/11 07:13:18;;;;;;;1.33;1.23;;;;;;;;;;4924286;29;20227;-85
2023/01/11 07:15:45;;;;;;;1.30;1.20;;;;;;;;;;4933989;29;20235;-85
2023/01/11 07:18:16;;;;;;;25.83;17.00;;;;;;;;;;4938914;29;20238;-85
2023/01/11 07:20:44;;;;;;;14.20;12.20;;;;;;;;;;4915205;29;20243;-85
2023/01/11 07:23:10;;;;;;;2.63;2.53;;;;;;;;;;4956738;28;20227;-85
2023/01/11 07:25:37;;;;;;;2.00;1.90;;;;;;;;;;4929214;29;20231;-84
2023/01/11 07:28:06;;;;;;;1.73;1.63;;;;;;;;;;4927452;29;20223;-85
2023/01/11 07:30:40;;;;;;;1.70;1.60;;;;;;;;;;4935135;29;20224;-83
2023/01/11 07:33:10;;;;;;;2.73;1.77;;;;;;;;;;4943992;29;20306;-83
2023/01/11 07:35:43;;;;;;;1.40;1.40;;;;;;;;;;4934661;29;20290;-88
2023/01/11 07:38:10;;;;;;;1.73;1.63;;;;;;;;;;4943443;29;20240;-88
2023/01/11 07:40:36;;;;;;;1.70;1.60;;;;;;;;;;4945237;28;20247;-87
2023/01/11 07:43:13;;;;;;;1.40;1.30;;;;;;;;;;4919331;29;20216;-87
2023/01/11 07:45:43;;;;;;;1.40;1.30;;;;;;;;;;4945738;28;20224;-85
2023/01/11 07:48:12;;;;;;;1.70;1.60;;;;;;;;;;4911503;29;20244;-86
2023/01/11 07:50:40;;;;;;;1.70;1.60;;;;;;;;;;4912734;29;20315;-86
2023/01/11 07:53:08;;;;;;;1.70;1.60;;;;;;;;;;4934663;29;20996;-84
2023/01/11 07:55:33;;;;;;;1.70;1.60;;;;;;;;;;4908016;29;20268;-84
2023/01/11 07:57:59;;;;;;;4.73;3.20;;;;;;;;;;4939567;29;20235;-85
2023/01/11 08:00:25;;;;;;;21.20;13.13;;;;;;;;;;4938008;29;20229;-87
2023/01/11 08:02:51;;;;;;;7.77;6.47;;;;;;;;;;4938139;29;20721;-84
2023/01/11 08:05:18;;;;;;;6.10;5.50;;;;;;;;;;4941012;29;20280;-84
2023/01/11 08:07:44;;;;;;;4.10;3.80;;;;;;;;;;4945948;29;20240;-87
2023/01/11 08:10:12;;;;;;;2.00;1.90;;;;;;;;;;4919372;29;20255;-87
2023/01/11 08:15:34;;;;;;;1.70;1.60;;;;;;;;;;4940289;29;20859;-84
2023/01/11 08:18:06;;;;;;;2.20;1.90;;;;;;;;;;4931133;29;20231;-82
2023/01/11 08:20:34;;;;;;;1.90;1.80;;;;;;;;;;4916742;29;20227;-87
2023/01/11 08:23:07;;;;;;;2.27;2.17;;;;;;;;;;4942535;29;20247;-87
2023/01/11 08:25:35;;;;;;;2.20;2.10;;;;;;;;;;4919632;29;20239;-89
2023/01/11 08:28:04;;;;;;;1.80;1.70;;;;;;;;;;4931424;29;20232;-85
2023/01/11 08:30:29;;;;;;;2.00;1.90;;;;;;;;;;4914773;29;20269;-84
2023/01/11 08:32:56;;;;;;;2.53;2.43;;;;;;;;;;4921614;29;20216;-85
2023/01/11 08:35:23;;;;;;;2.70;2.50;;;;;;;;;;4903348;29;20236;-85
2023/01/11 08:37:49;;;;;;;2.23;2.13;;;;;;;;;;4907882;29;20235;-85
2023/01/11 08:40:15;;;;;;;2.30;2.20;;;;;;;;;;4921606;29;20228;-84
2023/01/11 08:42:42;;;;;;;1.90;1.80;;;;;;;;;;4945852;28;20223;-83
2023/01/11 08:45:12;;;;;;;1.83;1.73;;;;;;;;;;4945647;28;20786;-84
2023/01/11 08:47:43;;;;;;;1.70;1.60;;;;;;;;;;4937771;29;20227;-84
2023/01/11 08:50:11;;;;;;;1.70;1.60;;;;;;;;;;4939373;29;20243;-83
2023/01/11 08:52:37;;;;;;;1.30;1.20;;;;;;;;;;4920764;29;20238;-83
2023/01/11 08:55:08;;;;;;;1.27;1.23;;;;;;;;;;4927743;29;20243;-83
2023/01/11 08:57:35;;;;;;;0.80;0.80;;;;;;;;;;4928495;29;20721;-84
2023/01/11 09:00:05;;;;;;;0.77;0.77;;;;;;;;;;4932239;29;20231;-84
2023/01/11 09:02:30;;;;;;;1.17;1.10;;;;;;;;;;4932760;29;20247;-84
2023/01/11 09:04:56;;;;;;;1.03;1.03;;;;;;;;;;4923254;29;20506;-83
2023/01/11 09:07:24;;;;;;;1.40;1.30;;;;;;;;;;4926410;29;20224;-83
2023/01/11 09:09:50;;;;;;;2.20;1.70;;;;;;;;;;4921229;29;20231;-84
2023/01/11 09:12:17;;;;;;;1.30;1.27;;;;;;;;;;4920522;29;20295;-84
2023/01/11 09:14:42;;;;;;;1.33;1.27;;;;;;;;;;4917575;29;20264;-82
2023/01/11 09:17:13;;;;;;;1.43;1.40;;;;;;;;;;4946447;29;20236;-83
2023/01/11 09:19:40;;;;;;;1.57;1.57;;;;;;;;;;4924298;29;20223;-84
2023/01/11 09:22:06;;;;;;;1.60;1.50;;;;;;;;;;4934209;29;20242;-82
2023/01/11 09:24:32;;;;;;;1.57;1.47;;;;;;;;;;4926350;29;20245;-85
2023/01/11 09:27:00;;;;;;;1.60;1.50;;;;;;;;;;4934520;29;20299;-85
2023/01/11 09:29:28;;;;;;;1.97;1.80;;;;;;;;;;4924551;29;20227;-83
2023/01/11 09:31:54;;;;;;;2.03;1.93;;;;;;;;;;4929002;29;20664;-83
2023/01/11 09:34:20;;;;;;;1.83;1.73;;;;;;;;;;4919189;29;20248;-86
2023/01/11 09:36:48;;;;;;;2.47;2.37;;;;;;;;;;4911929;29;20306;-86
2023/01/11 09:39:21;;;;;;;3.43;3.07;;;;;;;;;;4918266;29;20234;-85
2023/01/11 09:42:04;;;;;;;2.70;2.50;;;;;;;;;;4921612;29;20287;-86
2023/01/11 09:44:29;;;;;;;2.67;2.47;;;;;;;;;;4930137;29;20247;-82
2023/01/11 09:47:39;;;;;;;2.63;2.43;;;;;;;;;;4928339;29;20252;-84
2023/01/11 09:50:14;;;;;;;3.27;3.07;;;;;;;;;;4918870;29;20291;-85
2023/01/11 09:52:42;;;;;;;3.07;2.87;;;;;;;;;;4936923;29;20231;-83
2023/01/11 09:55:18;;;;;;;3.50;3.20;;;;;;;;;;4945318;28;20235;-83
2023/01/11 09:57:44;;;;;;;2.87;2.67;;;;;;;;;;4930911;29;20228;-80
2023/01/11 10:00:28;;;;;;;3.20;2.93;;;;;;;;;;4920311;29;20253;-82
2023/01/11 10:03:03;;;;;;;1.77;1.67;;;;;;;;;;4953770;29;20706;-82
2023/01/11 10:05:34;;;;;;;1.97;1.40;;;;;;;;;;4943932;28;20263;-81
2023/01/11 10:08:37;;;;;;;1.00;1.00;;;;;;;;;;4924924;29;20242;-81
2023/01/11 10:11:22;;;;;;;2.07;0.90;;;;;;;;;;4923576;29;20234;-82
2023/01/11 10:14:24;;;;;;;3.30;1.30;;;;;;;;;;4945709;29;20322;-81
2023/01/11 10:17:02;;;;;;;2.00;1.00;;;;;;;;;;4908423;29;20227;-82
2023/01/11 10:19:37;;;;;;;3.20;1.20;;;;;;;;;;4928748;29;20227;-81
2023/01/11 10:22:15;;;;;;;1.20;1.03;;;;;;;;;;4951281;28;20231;-81
2023/01/11 10:24:49;;;;;;;5.20;1.93;;;;;;;;;;4932500;29;20376;-81
2023/01/11 10:27:26;;;;;;;3.50;2.00;;;;;;;;;;4932356;29;20230;-80
2023/01/11 10:36:12;;;;;;;2.83;1.37;;;;;;;;;;4941084;29;20292;-82
2023/01/11 10:41:45;;;;;;;3.20;1.63;;;;;;;;;;4936209;29;20231;-78
2023/01/11 10:44:16;;;;;;;1.67;1.50;;;;;;;;;;4938259;29;20218;-81
2023/01/11 10:46:44;;;;;;;1.23;1.13;;;;;;;;;;4930413;28;20235;-81
2023/01/11 10:49:24;;;;;;;1.83;1.40;;;;;;;;;;4919190;29;20586;-81
2023/01/11 10:51:50;;;;;;;2.20;1.40;;;;;;;;;;4934003;29;20265;-81
2023/01/11 10:54:19;;;;;;;2.20;1.60;;;;;;;;;;4918883;29;20254;-80
2023/01/11 10:56:59;;;;;;;3.30;1.47;;;;;;;;;;4912113;29;20287;-81
2023/01/11 10:59:33;;;;;;;2.27;1.50;;;;;;;;;;4926851;29;20231;-81
2023/01/11 11:02:27;;;;;;;2.10;1.50;;;;;;;;;;4923000;29;20290;-81
2023/01/11 11:05:08;;;;;;;3.67;1.40;;;;;;;;;;4936522;28;20239;-82
2023/01/11 11:07:55;;;;;;;2.00;1.60;;;;;;;;;;4897088;29;20595;-81
2023/01/11 11:10:40;;;;;;;2.03;1.53;;;;;;;;;;4947892;28;20789;-81
2023/01/11 11:13:17;;;;;;;2.53;1.67;;;;;;;;;;4936058;29;20228;-81
2023/01/11 11:15:49;;;;;;;2.23;1.40;;;;;;;;;;4932433;29;20235;-81
2023/01/11 11:18:15;;;;;;;2.37;1.97;;;;;;;;;;4940805;29;20230;-81
2023/01/11 11:20:45;;;;;;;2.37;1.67;;;;;;;;;;4932146;29;20334;-82
2023/01/11 11:23:13;;;;;;;2.17;1.57;;;;;;;;;;4924908;29;20223;-83
2023/01/11 11:25:39;;;;;;;1.30;1.20;;;;;;;;;;4937760;28;20228;-83
2023/01/11 11:28:05;;;;;;;1.53;1.20;;;;;;;;;;4926269;29;20227;-82
2023/01/11 11:30:40;;;;;;;1.37;1.20;;;;;;;;;;4936747;29;20220;-83
2023/01/11 11:33:35;;;;;;;1.57;1.33;;;;;;;;;;4927123;29;20234;-82
2023/01/11 11:36:03;;;;;;;1.53;1.27;;;;;;;;;;4919956;29;20240;-82
2023/01/11 11:38:31;;;;;;;3.00;1.50;;;;;;;;;;4948956;29;20224;-81
2023/01/11 11:40:57;;;;;;;1.87;1.30;;;;;;;;;;4935139;29;20294;-81
2023/01/11 11:43:25;;;;;;;1.60;1.10;;;;;;;;;;4931407;29;20227;-82
2023/01/11 11:45:56;;;;;;;2.00;1.20;;;;;;;;;;4923871;29;20241;-81
2023/01/11 11:48:22;;;;;;;3.50;3.10;;;;;;;;;;4942842;29;20275;-80
2023/01/11 11:50:49;;;;;;;2.93;2.73;;;;;;;;;;4927548;29;20237;-82
2023/01/11 11:53:45;;;;;;;2.63;2.00;;;;;;;;;;4895188;29;20224;-82
2023/01/11 11:56:26;;;;;;;1.73;1.50;;;;;;;;;;4929468;29;20246;-82
2023/01/11 11:58:52;;;;;;;1.40;1.30;;;;;;;;;;4927579;29;20255;-81
2023/01/11 12:01:31;;;;;;;2.63;1.60;;;;;;;;;;4914040;29;20228;-81
2023/01/11 12:03:59;;;;;;;3.37;1.40;;;;;;;;;;4943549;28;20286;-80
2023/01/11 12:06:28;;;;;;;2.93;1.63;;;;;;;;;;4961336;28;20700;-82
2023/01/11 12:08:59;;;;;;;2.97;1.60;;;;;;;;;;4901584;29;20356;-81
2023/01/11 12:11:34;;;;;;;2.10;1.57;;;;;;;;;;4941676;28;20725;-82
2023/01/11 12:14:09;;;;;;;3.37;1.93;;;;;;;;;;4922856;29;20235;-82
2023/01/11 12:16:39;;;;;;;2.53;2.27;;;;;;;;;;4946213;28;20254;-80
2023/01/11 12:19:33;;;;;;;2.93;2.70;;;;;;;;;;4902356;29;20227;-82
2023/01/11 12:22:18;;;;;;;2.67;2.47;;;;;;;;;;4939768;29;20729;-81
2023/01/11 12:24:45;;;;;;;2.70;2.47;;;;;;;;;;4929903;29;20249;-82
2023/01/11 12:27:22;;;;;;;2.67;2.40;;;;;;;;;;4914658;29;20236;-82
2023/01/11 12:29:59;;;;;;;3.30;3.10;;;;;;;;;;4932577;29;20738;-82
2023/01/11 12:32:51;;;;;;;3.20;3.00;;;;;;;;;;4950605;29;20650;-82
2023/01/11 12:35:33;;;;;;;4.17;3.30;;;;;;;;;;4932877;29;20625;-83
2023/01/11 12:38:06;;;;;;;4.00;3.40;;;;;;;;;;4942599;28;20223;-84
2023/01/11 12:41:06;;;;;;;4.33;3.93;;;;;;;;;;4935215;29;20718;-81
2023/01/11 12:43:46;;;;;;;5.63;3.87;;;;;;;;;;4923849;29;20230;-83
2023/01/11 12:46:24;;;;;;;3.93;3.63;;;;;;;;;;4937437;29;20231;-84
2023/01/11 12:49:14;;;;;;;4.07;3.77;;;;;;;;;;4931237;29;20223;-83
2023/01/11 12:52:05;;;;;;;4.47;4.17;;;;;;;;;;4951949;28;20227;-84
2023/01/11 12:54:50;;;;;;;5.37;4.87;;;;;;;;;;4932543;29;20237;-85
2023/01/11 12:57:27;;;;;;;5.97;5.37;;;;;;;;;;4946872;29;20747;-84
2023/01/11 13:00:07;;;;;;;5.63;5.23;;;;;;;;;;4942745;29;20250;-83
2023/01/11 13:03:02;;;;;;;6.90;6.20;;;;;;;;;;4932298;29;20290;-84
2023/01/11 13:05:48;;;;;;;6.30;5.83;;;;;;;;;;4909075;29;20330;-84
2023/01/11 13:08:27;;;;;;;7.00;6.33;;;;;;;;;;4943452;29;20234;-84
2023/01/11 13:10:53;;;;;;;6.53;5.93;;;;;;;;;;4939608;29;20291;-84
2023/01/11 13:13:26;;;;;;;7.03;6.43;;;;;;;;;;4944108;29;20667;-85
2023/01/11 13:16:03;;;;;;;7.47;6.80;;;;;;;;;;4917366;29;20259;-85
2023/01/11 13:18:57;;;;;;;7.60;6.90;;;;;;;;;;4917410;29;20318;-85
2023/01/11 13:21:35;;;;;;;8.07;7.27;;;;;;;;;;4927081;28;20777;-85
2023/01/11 13:24:07;;;;;;;7.83;7.23;;;;;;;;;;4954485;28;20233;-84
2023/01/11 13:26:36;;;;;;;8.23;7.53;;;;;;;;;;4944438;28;20239;-84
2023/01/11 13:29:04;;;;;;;8.70;7.90;;;;;;;;;;4950404;29;20230;-83
2023/01/11 13:31:33;;;;;;;8.20;7.40;;;;;;;;;;4930622;29;20683;-84
2023/01/11 13:34:09;;;;;;;8.07;7.33;;;;;;;;;;4921689;29;20242;-84
2023/01/11 13:36:40;;;;;;;8.00;7.30;;;;;;;;;;4924377;29;20238;-83
2023/01/11 13:39:13;;;;;;;7.63;6.87;;;;;;;;;;4935018;29;20738;-86
2023/01/11 13:41:45;;;;;;;10.50;8.00;;;;;;;;;;4919506;29;20228;-85
2023/01/11 13:44:27;;;;;;;8.77;7.87;;;;;;;;;;4928956;29;20223;-86
2023/01/11 13:47:20;;;;;;;10.73;6.43;;;;;;;;;;4931573;29;20234;-83
2023/01/11 13:50:24;;;;;;;6.30;5.70;;;;;;;;;;4934320;29;20231;-84
2023/01/11 13:52:55;;;;;;;11.90;6.67;;;;;;;;;;4914952;29;20223;-87
2023/01/11 13:55:38;;;;;;;8.73;5.83;;;;;;;;;;4933700;29;20236;-83
2023/01/11 13:58:04;;;;;;;7.00;5.27;;;;;;;;;;4939535;29;20228;-84
2023/01/11 14:00:36;;;;;;;5.90;4.87;;;;;;;;;;4944471;29;20228;-86
2023/01/11 14:03:26;;;;;;;8.80;5.40;;;;;;;;;;4935406;29;20377;-85
2023/01/11 14:06:21;;;;;;;10.30;5.27;;;;;;;;;;4940789;28;20231;-83
2023/01/11 14:08:56;;;;;;;9.70;5.43;;;;;;;;;;4918845;29;20223;-85
2023/01/11 14:11:28;;;;;;;7.60;4.70;;;;;;;;;;4917398;29;20242;-85
2023/01/11 14:14:12;;;;;;;6.87;4.13;;;;;;;;;;4916823;29;20686;-84
2023/01/11 14:17:02;;;;;;;7.17;4.17;;;;;;;;;;4925127;29;20263;-84
2023/01/11 14:19:40;;;;;;;6.10;3.80;;;;;;;;;;4946094;28;20246;-83
2023/01/11 14:22:23;;;;;;;9.67;3.53;;;;;;;;;;4923621;29;20215;-85
2023/01/11 14:25:12;;;;;;;6.77;3.43;;;;;;;;;;4939445;29;20263;-86
2023/01/11 14:27:59;;;;;;;11.90;4.00;;;;;;;;;;4932111;29;20232;-88
2023/01/11 14:30:39;;;;;;;9.90;4.50;;;;;;;;;;4931353;29;20669;-81
2023/01/11 14:33:10;;;;;;;8.60;4.47;;;;;;;;;;4938336;29;20223;-84
2023/01/11 14:35:55;;;;;;;10.27;3.97;;;;;;;;;;4946302;28;20695;-88
2023/01/11 14:38:26;;;;;;;12.50;3.53;;;;;;;;;;4915864;29;20231;-87
2023/01/11 14:40:54;;;;;;;7.63;4.03;;;;;;;;;;4938451;29;20224;-84
2023/01/11 14:44:16;;;;;;;8.60;5.73;;;;;;;;;;4949678;28;20302;-84
2023/01/11 14:47:26;;;;;;;21.67;14.30;;;;;;;;;;4888652;29;20255;-85
2023/01/11 14:49:56;;;;;;;14.73;9.43;;;;;;;;;;4915608;29;20257;-83
2023/01/11 14:52:28;;;;;;;14.97;6.97;;;;;;;;;;4927381;29;20220;-86
2023/01/11 14:54:58;;;;;;;10.27;5.77;;;;;;;;;;4963627;28;20239;-86
2023/01/11 14:57:42;;;;;;;6.47;4.47;;;;;;;;;;4936102;29;20215;-86
2023/01/11 15:00:16;;;;;;;9.33;5.10;;;;;;;;;;4931259;29;20234;-87
2023/01/11 15:02:44;;;;;;;11.47;5.03;;;;;;;;;;4938584;28;20644;-85
2023/01/11 15:05:29;;;;;;;10.53;5.23;;;;;;;;;;4932828;28;20227;-87
2023/01/11 15:08:13;;;;;;;9.27;7.23;;;;;;;;;;4945735;29;20212;-84
2023/01/11 15:10:44;;;;;;;9.57;4.47;;;;;;;;;;4913115;29;20228;-87
2023/01/11 15:13:18;;;;;;;5.77;3.77;;;;;;;;;;4963109;28;20291;-86
2023/01/11 15:18:28;;;;;;;7.63;3.60;;;;;;;;;;4955728;28;20234;-84
2023/01/11 15:21:01;;;;;;;8.97;3.73;;;;;;;;;;4930308;29;20232;-84
2023/01/11 15:23:30;;;;;;;8.03;4.07;;;;;;;;;;4948805;29;20270;-84
2023/01/11 15:26:03;;;;;;;7.13;4.83;;;;;;;;;;4928816;29;20246;-84
2023/01/11 15:28:40;;;;;;;10.07;5.03;;;;;;;;;;4934397;29;20597;-86
2023/01/11 15:31:46;;;;;;;9.80;4.87;;;;;;;;;;4914250;29;20239;-86
2023/01/11 15:34:30;;;;;;;8.07;5.13;;;;;;;;;;4924229;29;20224;-86
2023/01/11 15:37:02;;;;;;;10.73;6.90;;;;;;;;;;4938165;29;20291;-87
2023/01/11 15:39:49;;;;;;;8.40;5.37;;;;;;;;;;4941602;29;20756;-85
2023/01/11 15:42:14;;;;;;;9.80;5.50;;;;;;;;;;4953323;29;20223;-84
2023/01/11 15:45:17;;;;;;;8.40;5.03;;;;;;;;;;4944098;29;20721;-84
2023/01/11 15:48:02;;;;;;;8.17;4.80;;;;;;;;;;4948859;28;20287;-85